createdAt,value
2022-07-29T00:01:03.843Z,3.70
2022-07-29T00:03:30.521Z,3.90
2022-07-29T00:05:57.175Z,3.28
2022-07-29T00:08:23.832Z,3.85
2022-07-29T00:10:51.920Z,4.30
2022-07-29T00:13:18.532Z,3.47
2022-07-29T00:15:59.012Z,3.65
2022-07-29T00:18:31.661Z,3.80
2022-07-29T00:20:58.266Z,3.95
2022-07-29T00:23:24.907Z,4.00
2022-07-29T00:25:51.498Z,4.43
2022-07-29T00:28:18.103Z,3.70
2022-07-29T00:30:44.762Z,4.10
2022-07-29T00:33:11.458Z,4.43
2022-07-29T00:35:47.201Z,4.27
2022-07-29T00:38:15.894Z,4.00
2022-07-29T00:40:44.014Z,3.92
2022-07-29T00:43:11.878Z,4.10
2022-07-29T00:45:38.537Z,4.00
2022-07-29T00:48:06.012Z,3.88
2022-07-29T00:50:33.384Z,4.40
2022-07-29T00:53:00.412Z,4.40
2022-07-29T00:55:27.029Z,4.50
2022-07-29T00:57:54.479Z,4.63
2022-07-29T01:00:24.204Z,4.50
2022-07-29T01:02:51.785Z,4.80
2022-07-29T01:05:20.536Z,4.45
2022-07-29T01:07:49.307Z,4.85
2022-07-29T01:10:17.215Z,4.07
2022-07-29T01:12:46.868Z,4.27
2022-07-29T01:15:13.755Z,4.10
2022-07-29T01:17:53.201Z,3.80
2022-07-29T01:20:56.565Z,4.38
2022-07-29T01:24:02.633Z,3.90
2022-07-29T01:26:41.787Z,3.80
2022-07-29T01:29:12.161Z,4.60
2022-07-29T01:32:00.971Z,4.00
2022-07-29T01:34:49.833Z,3.77
2022-07-29T01:37:23.028Z,3.63
2022-07-29T01:39:53.166Z,4.10
2022-07-29T01:42:36.367Z,3.60
2022-07-29T01:45:42.392Z,3.90
2022-07-29T01:48:23.390Z,3.87
2022-07-29T01:50:54.570Z,3.70
2022-07-29T01:53:37.840Z,3.57
2022-07-29T01:56:07.113Z,4.10
2022-07-29T01:58:35.935Z,4.37
2022-07-29T02:01:04.497Z,3.80
2022-07-29T02:03:32.462Z,3.97
2022-07-29T02:06:00.807Z,3.90
2022-07-29T02:08:29.037Z,4.03
2022-07-29T02:10:57.102Z,4.10
2022-07-29T02:13:26.998Z,3.60
2022-07-29T02:15:55.029Z,4.10
2022-07-29T02:18:25.080Z,3.77
2022-07-29T02:20:56.774Z,3.60
2022-07-29T02:23:25.550Z,3.70
2022-07-29T02:25:55.064Z,3.87
2022-07-29T02:28:25.078Z,3.80
2022-07-29T02:30:54.313Z,3.97
2022-07-29T02:33:22.584Z,4.10
2022-07-29T02:35:50.791Z,3.67
2022-07-29T02:38:37.144Z,4.60
2022-07-29T02:41:09.987Z,3.90
2022-07-29T02:43:37.478Z,3.63
2022-07-29T02:46:28.003Z,3.73
2022-07-29T02:49:33.201Z,3.87
2022-07-29T02:52:05.044Z,3.97
2022-07-29T02:54:51.793Z,4.50
2022-07-29T02:57:35.654Z,4.23
2022-07-29T03:00:24.474Z,3.73
2022-07-29T03:02:54.598Z,4.67
2022-07-29T03:05:23.304Z,4.00
2022-07-29T03:07:54.508Z,4.17
2022-07-29T03:10:22.113Z,4.50
2022-07-29T03:12:49.524Z,3.60
2022-07-29T03:15:16.854Z,3.90
2022-07-29T03:17:44.365Z,4.00
2022-07-29T03:20:12.661Z,4.30
2022-07-29T03:22:44.572Z,4.10
2022-07-29T03:25:13.438Z,4.43
2022-07-29T03:27:40.333Z,4.43
2022-07-29T03:30:09.068Z,4.37
2022-07-29T03:32:36.152Z,4.27
2022-07-29T03:35:03.630Z,4.70
2022-07-29T03:37:31.517Z,4.47
2022-07-29T03:39:59.410Z,4.20
2022-07-29T03:42:34.199Z,5.27
2022-07-29T03:45:04.238Z,4.73
2022-07-29T03:47:49.512Z,4.10
2022-07-29T03:50:20.348Z,4.37
2022-07-29T03:52:48.003Z,4.30
2022-07-29T03:55:15.658Z,4.07
2022-07-29T03:57:43.462Z,4.30
2022-07-29T04:00:10.689Z,4.50
2022-07-29T04:02:38.737Z,4.50
2022-07-29T04:05:05.813Z,4.33
2022-07-29T04:07:32.477Z,4.73
2022-07-29T04:09:59.092Z,4.40
2022-07-29T04:12:25.830Z,3.93
2022-07-29T04:14:52.407Z,4.70
2022-07-29T04:17:19.038Z,4.13
2022-07-29T04:19:46.029Z,4.30
2022-07-29T04:22:12.691Z,4.90
2022-07-29T04:24:42.834Z,4.78
2022-07-29T04:27:10.972Z,4.18
2022-07-29T04:29:37.547Z,5.23
2022-07-29T04:32:23.947Z,4.50
2022-07-29T04:34:50.528Z,4.73
2022-07-29T04:37:17.158Z,4.97
2022-07-29T04:39:43.816Z,4.10
2022-07-29T04:42:10.427Z,4.17
2022-07-29T04:44:37.254Z,4.10
2022-07-29T04:47:08.873Z,4.60
2022-07-29T04:49:35.461Z,5.50
2022-07-29T04:52:02.097Z,4.85
2022-07-29T04:54:28.760Z,4.40
2022-07-29T04:56:55.328Z,3.75
2022-07-29T04:59:21.983Z,4.28
2022-07-29T05:01:48.659Z,4.35
2022-07-29T05:04:15.595Z,4.10
2022-07-29T05:06:42.482Z,4.32
2022-07-29T05:09:09.059Z,3.42
2022-07-29T05:11:35.645Z,4.53
2022-07-29T05:14:02.258Z,4.17
2022-07-29T05:16:29.865Z,4.25
2022-07-29T05:18:56.485Z,3.95
2022-07-29T05:21:23.086Z,4.78
2022-07-29T05:23:49.668Z,4.60
2022-07-29T05:26:16.337Z,4.63
2022-07-29T05:28:42.903Z,3.70
2022-07-29T05:31:09.538Z,4.13
2022-07-29T05:33:37.099Z,3.72
2022-07-29T05:36:07.496Z,3.25
2022-07-29T05:38:35.406Z,3.40
2022-07-29T05:41:02.327Z,3.88
2022-07-29T05:43:29.725Z,4.00
2022-07-29T05:45:57.048Z,2.97
2022-07-29T05:48:23.872Z,3.25
2022-07-29T05:50:50.526Z,3.20
2022-07-29T05:53:19.565Z,3.30
2022-07-29T05:55:47.321Z,3.10
2022-07-29T05:58:13.939Z,3.20
2022-07-29T06:00:41.011Z,2.88
2022-07-29T06:03:07.860Z,3.20
2022-07-29T06:05:34.800Z,3.17
2022-07-29T06:08:01.559Z,3.00
2022-07-29T06:10:28.285Z,3.30
2022-07-29T06:12:55.170Z,3.45
2022-07-29T06:15:21.946Z,2.90
2022-07-29T06:18:00.338Z,3.25
2022-07-29T06:20:31.825Z,2.75
2022-07-29T06:22:59.376Z,3.30
2022-07-29T06:25:26.169Z,3.60
2022-07-29T06:27:53.187Z,3.13
2022-07-29T06:30:19.839Z,3.35
2022-07-29T06:32:46.531Z,3.17
2022-07-29T06:35:37.872Z,3.03
2022-07-29T06:38:00.020Z,3.15
2022-07-29T06:40:45.737Z,3.15
2022-07-29T06:43:12.366Z,3.47
2022-07-29T06:45:42.172Z,2.78
2022-07-29T06:48:09.886Z,2.70
2022-07-29T06:50:36.559Z,3.05
2022-07-29T06:53:03.428Z,2.67
2022-07-29T06:55:30.062Z,3.20
2022-07-29T06:57:56.690Z,2.63
2022-07-29T07:00:23.348Z,2.95
2022-07-29T07:02:49.981Z,2.90
2022-07-29T07:05:16.666Z,2.85
2022-07-29T07:07:43.246Z,2.92
2022-07-29T07:10:10.097Z,2.80
2022-07-29T07:12:36.695Z,3.00
2022-07-29T07:15:04.057Z,2.60
2022-07-29T07:17:30.665Z,2.65
2022-07-29T07:19:57.228Z,3.08
2022-07-29T07:22:23.820Z,2.80
2022-07-29T07:24:50.404Z,3.22
2022-07-29T07:27:17.048Z,2.75
2022-07-29T07:29:44.271Z,2.90
2022-07-29T07:32:11.376Z,2.92
2022-07-29T07:34:38.976Z,2.70
2022-07-29T07:37:06.438Z,2.40
2022-07-29T07:39:33.062Z,2.70
2022-07-29T07:41:59.954Z,2.97
2022-07-29T07:44:26.916Z,2.75
2022-07-29T07:46:53.599Z,3.08
2022-07-29T07:49:21.545Z,2.80
2022-07-29T07:51:50.598Z,2.50
2022-07-29T07:54:20.512Z,2.60
2022-07-29T07:56:49.911Z,2.60
2022-07-29T07:59:19.715Z,2.50
2022-07-29T08:01:47.837Z,2.70
2022-07-29T08:04:27.310Z,2.40
2022-07-29T08:06:57.923Z,2.33
2022-07-29T08:09:30.338Z,2.55
2022-07-29T08:11:58.849Z,2.03
2022-07-29T08:14:25.500Z,2.40
2022-07-29T08:16:52.555Z,2.15
2022-07-29T08:19:19.323Z,2.20
2022-07-29T08:21:46.133Z,2.85
2022-07-29T08:24:31.245Z,2.30
2022-07-29T08:26:57.835Z,2.25
2022-07-29T08:29:24.451Z,2.10
2022-07-29T08:31:51.278Z,2.50
2022-07-29T08:34:18.268Z,2.45
2022-07-29T08:36:44.867Z,1.98
2022-07-29T08:39:17.379Z,2.30
2022-07-29T08:41:56.858Z,2.28
2022-07-29T08:44:30.919Z,2.60
2022-07-29T08:46:58.055Z,2.17
2022-07-29T08:49:24.826Z,2.30
2022-07-29T08:51:52.427Z,2.22
2022-07-29T08:54:19.763Z,2.33
2022-07-29T08:56:50.792Z,2.33
2022-07-29T08:59:21.935Z,2.30
2022-07-29T09:01:52.987Z,2.28
2022-07-29T09:04:21.615Z,2.08
2022-07-29T09:06:52.188Z,2.10
2022-07-29T09:09:18.852Z,2.20
2022-07-29T09:11:45.496Z,2.22
2022-07-29T09:14:14.246Z,2.10
2022-07-29T09:16:59.055Z,2.08
2022-07-29T09:19:33.189Z,2.60
2022-07-29T09:22:03.055Z,2.30
2022-07-29T09:24:42.644Z,2.20
2022-07-29T09:27:27.766Z,2.20
2022-07-29T09:30:25.752Z,2.45
2022-07-29T09:33:02.103Z,2.42
2022-07-29T09:35:30.096Z,2.10
2022-07-29T09:37:57.242Z,1.95
2022-07-29T09:40:26.365Z,2.58
2022-07-29T09:42:56.430Z,2.33
2022-07-29T09:45:34.118Z,2.17
2022-07-29T09:48:13.999Z,2.72
2022-07-29T09:50:42.889Z,2.05
2022-07-29T09:53:12.483Z,2.20
2022-07-29T09:55:52.350Z,2.22
2022-07-29T09:58:21.627Z,2.22
2022-07-29T10:00:50.625Z,2.22
2022-07-29T10:03:18.318Z,2.05
2022-07-29T10:05:46.213Z,2.10
2022-07-29T10:08:13.780Z,1.98
2022-07-29T10:10:43.911Z,1.90
2022-07-29T10:13:15.751Z,2.50
2022-07-29T10:15:46.256Z,2.22
2022-07-29T10:18:14.189Z,2.00
2022-07-29T10:20:41.279Z,1.88
2022-07-29T10:23:07.909Z,2.00
2022-07-29T10:25:34.718Z,1.80
2022-07-29T10:28:01.387Z,2.15
2022-07-29T10:30:28.328Z,1.83
2022-07-29T10:32:58.766Z,2.20
2022-07-29T10:35:59.107Z,1.85
2022-07-29T10:38:45.715Z,1.90
2022-07-29T10:41:32.580Z,2.05
2022-07-29T10:44:17.423Z,1.80
2022-07-29T10:46:46.779Z,2.08
2022-07-29T10:49:19.207Z,2.08
2022-07-29T10:52:06.994Z,1.95
2022-07-29T10:54:44.494Z,2.10
2022-07-29T10:57:17.783Z,2.05
2022-07-29T10:59:46.429Z,1.90
2022-07-29T11:02:42.316Z,2.00
2022-07-29T11:05:15.627Z,2.00
2022-07-29T11:08:19.800Z,2.17
2022-07-29T11:10:51.900Z,2.20
2022-07-29T11:13:49.049Z,2.20
2022-07-29T11:16:16.759Z,2.05
2022-07-29T11:19:11.261Z,2.17
2022-07-29T11:22:05.177Z,2.05
2022-07-29T11:24:30.102Z,2.03
2022-07-29T11:27:14.392Z,2.10
2022-07-29T11:32:48.541Z,2.45
2022-07-29T11:35:37.131Z,2.05
2022-07-29T11:38:27.902Z,2.15
2022-07-29T11:41:27.367Z,2.72
2022-07-29T11:43:59.123Z,2.40
2022-07-29T11:46:51.907Z,2.10
2022-07-29T11:49:32.158Z,2.20
2022-07-29T11:52:02.623Z,2.40
2022-07-29T11:54:57.030Z,2.30
2022-07-29T11:57:36.416Z,2.50
2022-07-29T12:00:10.040Z,2.40
2022-07-29T12:02:43.045Z,2.42
2022-07-29T12:05:14.518Z,2.70
2022-07-29T12:07:45.477Z,2.47
2022-07-29T12:10:19.959Z,2.42
2022-07-29T12:12:57.155Z,2.40
2022-07-29T12:15:25.047Z,2.40
2022-07-29T12:18:13.966Z,2.50
2022-07-29T12:20:40.752Z,2.70
2022-07-29T12:23:09.827Z,2.85
2022-07-29T12:25:38.071Z,2.78
2022-07-29T12:28:26.639Z,2.90
2022-07-29T12:30:54.462Z,2.50
2022-07-29T12:33:29.662Z,2.63
2022-07-29T12:36:07.644Z,2.92
2022-07-29T12:38:36.883Z,2.97
2022-07-29T12:41:04.947Z,2.60
2022-07-29T12:43:32.419Z,3.00
2022-07-29T12:46:11.999Z,2.97
2022-07-29T12:48:41.184Z,2.90
2022-07-29T12:51:09.677Z,3.20
2022-07-29T12:53:37.005Z,3.05
2022-07-29T12:56:15.520Z,2.85
2022-07-29T12:58:52.686Z,2.85
2022-07-29T13:01:20.865Z,3.05
2022-07-29T13:04:05.003Z,2.65
2022-07-29T13:06:33.098Z,2.60
2022-07-29T13:09:06.176Z,3.10
2022-07-29T13:11:38.379Z,2.97
2022-07-29T13:14:06.998Z,3.35
2022-07-29T13:16:33.959Z,2.80
2022-07-29T13:19:08.643Z,2.90
2022-07-29T13:21:35.373Z,2.90
2022-07-29T13:24:02.182Z,3.05
2022-07-29T13:26:28.874Z,2.95
2022-07-29T13:28:56.080Z,2.78
2022-07-29T13:31:23.037Z,2.95
2022-07-29T13:33:49.905Z,2.70
2022-07-29T13:36:16.561Z,2.90
2022-07-29T13:38:43.223Z,3.60
2022-07-29T13:41:10.176Z,2.63
2022-07-29T13:43:37.452Z,2.75
2022-07-29T13:46:04.099Z,2.72
2022-07-29T13:48:30.831Z,3.00
2022-07-29T13:50:57.745Z,2.88
2022-07-29T13:53:27.212Z,3.35
2022-07-29T13:55:54.719Z,3.13
2022-07-29T13:58:21.362Z,2.90
2022-07-29T14:00:48.244Z,3.20
2022-07-29T14:03:14.809Z,3.00
2022-07-29T14:05:41.451Z,3.20
2022-07-29T14:08:08.041Z,3.10
2022-07-29T14:10:34.675Z,3.05
2022-07-29T14:13:02.048Z,2.80
2022-07-29T14:15:28.740Z,2.90
2022-07-29T14:17:55.325Z,3.45
2022-07-29T14:20:22.016Z,3.47
2022-07-29T14:22:49.276Z,2.80
2022-07-29T14:25:16.872Z,3.20
2022-07-29T14:27:44.668Z,2.97
2022-07-29T14:30:11.753Z,3.10
2022-07-29T14:32:38.348Z,3.00
2022-07-29T14:35:06.499Z,3.15
2022-07-29T14:37:39.729Z,3.10
2022-07-29T14:40:07.754Z,3.13
2022-07-29T14:42:34.345Z,3.10
2022-07-29T14:45:01.127Z,3.08
2022-07-29T14:47:27.792Z,2.80
2022-07-29T14:49:54.456Z,3.33
2022-07-29T14:52:21.068Z,2.90
2022-07-29T14:54:47.676Z,3.17
2022-07-29T14:57:14.334Z,2.78
2022-07-29T14:59:40.954Z,3.10
2022-07-29T15:02:07.663Z,3.08
2022-07-29T15:04:34.453Z,3.08
2022-07-29T15:07:01.217Z,3.17
2022-07-29T15:09:27.935Z,3.28
2022-07-29T15:11:54.750Z,2.90
2022-07-29T15:14:21.350Z,2.95
2022-07-29T15:16:48.365Z,3.38
2022-07-29T15:19:15.399Z,3.00
2022-07-29T15:21:48.696Z,3.17
2022-07-29T15:24:16.577Z,3.35
2022-07-29T15:26:44.225Z,3.00
2022-07-29T15:29:10.898Z,3.30
2022-07-29T15:31:37.628Z,2.92
2022-07-29T15:34:06.298Z,3.03
2022-07-29T15:36:51.620Z,3.10
2022-07-29T15:39:20.360Z,2.83
2022-07-29T15:41:47.055Z,2.95
2022-07-29T15:44:13.775Z,2.80
2022-07-29T15:46:59.416Z,2.53
2022-07-29T15:49:48.245Z,2.60
2022-07-29T15:52:25.333Z,2.70
2022-07-29T15:54:54.306Z,2.60
2022-07-29T15:57:20.886Z,2.60
2022-07-29T15:59:47.538Z,2.70
2022-07-29T16:02:14.196Z,2.45
2022-07-29T16:04:41.091Z,2.95
2022-07-29T16:07:07.827Z,2.75
2022-07-29T16:09:34.628Z,2.80
2022-07-29T16:12:01.343Z,3.95
2022-07-29T16:14:28.696Z,2.80
2022-07-29T16:16:56.359Z,3.10
2022-07-29T16:19:23.397Z,2.50
2022-07-29T16:21:50.006Z,3.03
2022-07-29T16:24:16.667Z,2.75
2022-07-29T16:26:43.287Z,2.70
2022-07-29T16:29:09.886Z,2.30
2022-07-29T16:31:36.665Z,2.50
2022-07-29T16:34:03.352Z,2.30
2022-07-29T16:36:29.937Z,2.53
2022-07-29T16:38:56.544Z,2.65
2022-07-29T16:41:23.288Z,2.70
2022-07-29T16:43:49.897Z,2.72
2022-07-29T16:46:18.907Z,2.97
2022-07-29T16:48:45.885Z,2.60
2022-07-29T16:51:14.544Z,2.60
2022-07-29T16:53:41.603Z,2.45
2022-07-29T16:56:12.672Z,2.60
2022-07-29T16:58:43.610Z,2.90
2022-07-29T17:01:10.797Z,2.80
2022-07-29T17:04:00.087Z,2.80
2022-07-29T17:06:28.577Z,2.70
2022-07-29T17:08:56.253Z,2.63
2022-07-29T17:11:22.834Z,2.50
2022-07-29T17:14:10.121Z,2.85
2022-07-29T17:16:36.797Z,2.50
2022-07-29T17:19:03.609Z,2.55
2022-07-29T17:21:30.188Z,2.47
2022-07-29T17:23:58.760Z,2.50
2022-07-29T17:26:27.402Z,2.72
2022-07-29T17:28:55.400Z,2.60
2022-07-29T17:31:22.433Z,2.38
2022-07-29T17:33:49.117Z,2.50
2022-07-29T17:36:24.772Z,2.10
2022-07-29T17:38:53.276Z,2.70
2022-07-29T17:41:21.153Z,2.58
2022-07-29T17:43:48.423Z,2.58
2022-07-29T17:46:15.695Z,2.58
2022-07-29T17:48:42.600Z,3.00
2022-07-29T17:51:09.408Z,2.25
2022-07-29T17:53:36.551Z,2.45
2022-07-29T17:56:04.542Z,2.70
2022-07-29T17:58:32.444Z,2.40
2022-07-29T18:00:59.253Z,2.30
2022-07-29T18:03:26.448Z,2.38
2022-07-29T18:05:53.594Z,2.70
2022-07-29T18:08:20.320Z,2.38
2022-07-29T18:10:47.294Z,2.42
2022-07-29T18:13:14.160Z,2.88
2022-07-29T18:15:41.072Z,2.78
2022-07-29T18:18:07.659Z,2.30
2022-07-29T18:20:34.809Z,2.30
2022-07-29T18:23:01.582Z,2.40
2022-07-29T18:25:28.899Z,2.45
2022-07-29T18:28:00.168Z,2.58
2022-07-29T18:30:27.840Z,2.28
2022-07-29T18:33:19.228Z,2.70
2022-07-29T18:35:41.117Z,2.50
2022-07-29T18:38:07.731Z,2.38
2022-07-29T18:40:34.527Z,2.50
2022-07-29T18:43:01.257Z,2.17
2022-07-29T18:45:28.275Z,2.65
2022-07-29T18:47:56.218Z,2.42
2022-07-29T18:50:28.853Z,2.35
2022-07-29T18:52:58.401Z,2.72
2022-07-29T18:55:25.754Z,2.42
2022-07-29T18:57:54.959Z,2.78
2022-07-29T19:00:24.051Z,2.42
2022-07-29T19:02:51.145Z,2.67
2022-07-29T19:05:18.240Z,2.55
2022-07-29T19:07:44.857Z,2.40
2022-07-29T19:10:12.202Z,2.70
2022-07-29T19:12:39.119Z,2.92
2022-07-29T19:15:07.488Z,2.65
2022-07-29T19:17:34.089Z,2.50
2022-07-29T19:20:00.719Z,2.95
2022-07-29T19:22:27.743Z,2.65
2022-07-29T19:24:54.357Z,2.90
2022-07-29T19:27:20.985Z,2.80
2022-07-29T19:29:47.642Z,2.60
2022-07-29T19:32:14.599Z,3.20
2022-07-29T19:35:10.469Z,3.50
2022-07-29T19:37:37.360Z,2.40
2022-07-29T19:40:05.192Z,2.95
2022-07-29T19:42:31.820Z,2.97
2022-07-29T19:44:58.449Z,3.00
2022-07-29T19:47:25.011Z,3.13
2022-07-29T19:49:51.669Z,2.92
2022-07-29T19:52:18.345Z,3.17
2022-07-29T19:54:45.055Z,3.08
2022-07-29T19:57:11.646Z,2.80
2022-07-29T19:59:38.744Z,3.63
2022-07-29T20:02:05.750Z,2.90
2022-07-29T20:04:32.750Z,2.90
2022-07-29T20:07:01.719Z,2.45
2022-07-29T20:09:28.897Z,3.00
2022-07-29T20:11:55.556Z,4.68
2022-07-29T20:14:22.714Z,2.90
2022-07-29T20:16:50.550Z,3.25
2022-07-29T20:19:17.720Z,3.30
2022-07-29T20:21:44.335Z,2.70
2022-07-29T20:24:11.145Z,2.97
2022-07-29T20:26:37.958Z,2.90
2022-07-29T20:29:05.285Z,2.97
2022-07-29T20:31:32.467Z,2.70
2022-07-29T20:34:00.102Z,2.65
2022-07-29T20:36:27.404Z,2.35
2022-07-29T20:38:55.010Z,2.80
2022-07-29T20:41:22.077Z,3.05
2022-07-29T20:43:51.773Z,2.83
2022-07-29T20:46:18.924Z,2.92
2022-07-29T20:48:47.071Z,2.55
2022-07-29T20:51:14.531Z,2.90
2022-07-29T20:53:41.551Z,2.53
2022-07-29T20:56:08.488Z,2.72
2022-07-29T20:58:36.206Z,2.80
2022-07-29T21:01:03.796Z,2.38
2022-07-29T21:03:30.608Z,2.05
2022-07-29T21:05:57.247Z,2.63
2022-07-29T21:08:23.947Z,2.70
2022-07-29T21:10:50.697Z,2.47
2022-07-29T21:13:17.679Z,2.20
2022-07-29T21:15:48.136Z,2.85
2022-07-29T21:18:30.489Z,2.60
2022-07-29T21:21:00.470Z,3.08
2022-07-29T21:23:27.491Z,2.50
2022-07-29T21:25:54.963Z,2.60
2022-07-29T21:28:28.955Z,2.50
2022-07-29T21:31:01.973Z,2.50
2022-07-29T21:33:30.896Z,2.60
2022-07-29T21:36:26.843Z,2.47
2022-07-29T21:38:44.126Z,2.45
2022-07-29T21:41:12.492Z,2.67
2022-07-29T21:43:41.866Z,2.80
2022-07-29T21:46:09.290Z,2.78
2022-07-29T21:48:36.000Z,2.45
2022-07-29T21:51:02.643Z,2.47
2022-07-29T21:53:29.274Z,2.60
2022-07-29T21:55:57.358Z,2.50
2022-07-29T21:58:24.622Z,2.60
2022-07-29T22:00:51.706Z,2.67
2022-07-29T22:03:18.446Z,2.85
2022-07-29T22:05:45.167Z,2.50
2022-07-29T22:08:11.821Z,2.53
2022-07-29T22:10:38.531Z,2.50
2022-07-29T22:13:05.187Z,2.50
2022-07-29T22:15:32.222Z,2.40
2022-07-29T22:17:59.204Z,2.70
2022-07-29T22:20:26.280Z,2.58
2022-07-29T22:22:53.560Z,2.70
2022-07-29T22:25:20.677Z,2.60
2022-07-29T22:27:47.787Z,2.45
2022-07-29T22:30:15.222Z,2.72
2022-07-29T22:32:42.147Z,2.47
2022-07-29T22:35:09.287Z,2.58
2022-07-29T22:37:36.023Z,2.80
2022-07-29T22:40:03.018Z,2.00
2022-07-29T22:42:30.353Z,2.55
2022-07-29T22:44:56.970Z,2.35
2022-07-29T22:47:46.559Z,2.55
2022-07-29T22:50:10.143Z,2.35
2022-07-29T22:52:36.899Z,2.47
2022-07-29T22:55:04.845Z,2.38
2022-07-29T22:57:31.515Z,2.50
2022-07-29T22:59:58.256Z,2.40
2022-07-29T23:02:24.854Z,2.20
2022-07-29T23:04:51.430Z,2.58
2022-07-29T23:07:18.036Z,2.70
2022-07-29T23:09:44.727Z,2.53
2022-07-29T23:12:11.296Z,2.60
2022-07-29T23:14:37.906Z,2.63
2022-07-29T23:17:05.270Z,2.63
2022-07-29T23:19:32.050Z,2.58
2022-07-29T23:21:58.846Z,2.30
2022-07-29T23:24:25.435Z,2.33
2022-07-29T23:26:53.827Z,2.50
2022-07-29T23:29:20.405Z,2.10
2022-07-29T23:31:48.208Z,2.35
2022-07-29T23:34:15.051Z,2.83
2022-07-29T23:36:42.250Z,1.92
2022-07-29T23:39:13.173Z,2.63
2022-07-29T23:41:39.864Z,2.72
2022-07-29T23:44:06.517Z,2.53
2022-07-29T23:46:33.174Z,2.38
2022-07-29T23:49:00.009Z,2.20
2022-07-29T23:51:28.888Z,2.50
2022-07-29T23:53:55.763Z,2.20
2022-07-29T23:56:22.625Z,2.40
2022-07-29T23:58:49.302Z,2.58
